Flight Track Log - Related Links

Times and Time Zones

All times are in EST time to prevent confusion due to time zone crossing. See the CPZ5833 flight status page for this flight to view local times or setup timezone preferences in your user account.

Time Position Orientation Groundspeed Altitude Reporting Facility
EST Latitude Longitude Course Direction KTS MPH feet Rate Location/Type
Sat 11:27:44 AM 37.6500 -122.3667 132° Southeast 155 178 1,800  Level Northern Cal TRACON
Sat 11:28:33 AM 37.6781 -122.3939 322° Northwest 236 272 3,200 2,400 Climbing Oakland Center
Sat 11:29:34 AM 37.6286 -122.4525 223° Southwest 269 310 6,200 2,951 Climbing Oakland Center
Sat 11:30:00 AM 37.2011 -122.0279 136° Southeast  Level FlightAware Approximate
Sat 11:30:35 AM 37.5467 -122.4547 181° South 313 360 9,200  Level Oakland Center
Sat 11:31:00 AM 37.1132 -121.9119 132° Southeast  Level FlightAware Approximate
Sat 11:31:36 AM 37.4653 -122.4078 155° Southeast 322 371 11,500  Level Oakland Center
Sat 11:32:00 AM 37.0272 -121.7935 132° Southeast  Level FlightAware Approximate
Sat 11:32:37 AM 37.3908 -122.3150 135° Southeast 373 429 13,400  Level Oakland Center
Sat 11:33:38 AM 37.3183 -122.2136 132° Southeast 389 448 16,200 2,341 Climbing Oakland Center
Sat 11:34:40 AM 37.2442 -122.1108 132° Southeast 397 457 18,200 1,854 Climbing Oakland Center
Sat 11:35:41 AM 37.1483 -121.9806 133° Southeast 426 490 20,000 1,869 Climbing Oakland Center
Sat 11:36:42 AM 37.0672 -121.8672 132° Southeast 437 503 22,000 1,869 Climbing Oakland Center
Sat 11:37:43 AM 36.9808 -121.7542 134° Southeast 449 517 23,800 1,721 Climbing Oakland Center
Sat 11:38:44 AM 36.8958 -121.6400 133° Southeast 451 519 25,500 1,463 Climbing Oakland Center
Sat 11:39:46 AM 36.8103 -121.5219 132° Southeast 458 527 26,800 732 Climbing Oakland Center
Sat 11:40:47 AM 36.7100 -121.3869 133° Southeast 481 554 27,000 98 Climbing Oakland Center
Sat 11:41:48 AM 36.6181 -121.2633 133° Southeast 486 559 27,000  Level Oakland Center
Sat 11:42:50 AM 36.5258 -121.1403 133° Southeast 487 560 27,000  Level Oakland Center
Sat 11:43:51 AM 36.4350 -121.0164 132° Southeast 487 560 27,000  Level Oakland Center
Sat 11:44:52 AM 36.3422 -120.8931 133° Southeast 487 560 27,000  Level Oakland Center
Sat 11:45:54 AM 36.2492 -120.7686 133° Southeast 490 564 27,000  Level Oakland Center
Sat 11:46:55 AM 36.1561 -120.6444 133° Southeast 490 564 27,000  Level Oakland Center
Sat 11:47:57 AM 36.0628 -120.5217 133° Southeast 490 564 27,000  Level Oakland Center
Sat 11:48:58 AM 35.9689 -120.3986 133° Southeast 490 564 27,000  Level Oakland Center
Sat 11:49:59 AM 35.8758 -120.2758 133° Southeast 489 563 27,000  Level Oakland Center
Sat 11:51:01 AM 35.7622 -120.1286 134° Southeast 489 563 27,000  Level Oakland Center
Sat 11:52:02 AM 35.6678 -120.0053 133° Southeast 490 564 27,000  Level Oakland Center
Sat 11:53:03 AM 35.5564 -119.8992 142° Southeast 500 575 27,000  Level Oakland Center
Sat 11:54:05 AM 35.4408 -119.8000 145° Southeast 502 578 27,000  Level Oakland Center
Sat 11:55:06 AM 35.3261 -119.7008 145° Southeast 502 578 27,000  Level Oakland Center
Sat 11:56:07 AM 35.2119 -119.6031 145° Southeast 500 575 27,000  Level Oakland Center
Sat 11:57:09 AM 35.0981 -119.5061 145° Southeast 498 573 27,000  Level Oakland Center
Sat 11:58:10 AM 34.9836 -119.4078 145° Southeast 501 577 27,000  Level Oakland Center
Sat 11:59:11 AM 34.8692 -119.3111 145° Southeast 501 577 27,000 -927 Level Oakland Center
Sat 12:00:13 PM 34.7575 -119.2175 145° Southeast 495 570 25,100 -2,083 Descending Oakland Center
Sat 12:01:35 PM 34.6186 -119.1014 145° Southeast 461 531 22,000 -2,417 Descending Los Angeles Center
Sat 12:02:37 PM 34.5036 -119.0031 145° Southeast 421 484 19,300 -2,371 Descending Los Angeles Center
Sat 12:03:39 PM 34.4083 -118.9242 146° Southeast 414 476 17,100 -2,081 Descending Los Angeles Center
Sat 12:04:41 PM 34.3125 -118.8653 153° Southeast 388 447 15,000 -1,984 Descending Los Angeles Center
Sat 12:05:43 PM 34.2142 -118.8278 162° South 371 427 13,000 -1,680 Descending Los Angeles Center
Sat 12:06:46 PM 34.1239 -118.7956 164° South 343 395 11,500 -1,152 Descending Los Angeles Center
Sat 12:07:48 PM 34.0400 -118.7358 149° Southeast 327 376 10,600 -726 Descending Los Angeles Center
Sat 12:08:50 PM 34.0269 -118.6278 98° East 307 353 10,000 -871 Descending Los Angeles Center
Sat 12:09:52 PM 34.0167 -118.5256 97° East 307 353 8,800 -1,355 Descending Los Angeles Center
Sat 12:10:54 PM 34.0133 -118.4306 92° East 293 337 7,200 -1,452 Descending Los Angeles Center
Sat 12:11:56 PM 34.0194 -118.3353 86° East 286 329 5,800 -1,103 Descending Los Angeles Center
Sat 12:13:10 PM 34.0247 -118.2492 86° East 272 313 4,700 -920 Descending Los Angeles Center
Sat 12:14:13 PM 33.9897 -118.2061 134° Southeast 208 239 3,700 -1,113 Descending Los Angeles Center
Sat 12:15:14 PM 33.9661 -118.2619 243° Southwest 193 222 2,400 -1,161 Descending Los Angeles Center
Sat 12:16:17 PM 33.9586 -118.3319 263° West 183 211 1,300 -912 Descending Los Angeles Center
Sat 12:17:19 PM 33.9547 -118.3803 264° West 162 186 500 -581 Descending Los Angeles Center
Sat 12:18:21 PM 33.9503 -118.4236 263° West 141 162 100 -387 Descending Los Angeles Center

Login

Don't have an account? Register now (free) for customized features, flight alerts, and more!